Wichita Mid Continent Airport
KICT : now visible

Airfield :











YOU CAN JOIN US ON...

 
LOGIN :

Register | Disclaimer

   EN    FR    IT 

 









Legend :    VFR   Marginal VFR   IFR   Intensive IFR   Very Intensive IFR
Visi :
Ceiling :
>= 8 km
>= 3000ft
5 to 8 km
1000 to 3000 ft
1500m to 5 km
500 to 1000 ft
800 to 1500m
200 to 500 ft
< 800m
< 200 ft
Symbols :   Thunderstorms  Fog  Heavy snow  Heavy precipitations  Wind > 20 kt







- Airport Elevation : 1333 ft
- IATA code : ICT


KICT - Wichita Mid Continent

CURRENT METAR :
  • 250753Z 13003KT 5SM TSRA BR BKN055CB BKN070 OVC100 19/19 A3003 RMK AO2 SLP158 TSB17 OCNL LTGICCG VC E-SE TS E-SE MOVG NE P0020 T01940194 $

EXPIRED METARs :
  • 250722Z 00000KT 4SM TSRA BR SCT013 BKN070CB OVC085 20/20 A3005 RMK AO2 TSB17 OCNL LTGICCG TS VC E-S-W MOVG NE P0012 T02000200 $
  • 250653Z 30003KT 5SM -RA BR SCT007 BKN070 OVC095 20/19 A3002 RMK AO2 RAE03B43 SLP153 OCNL LTGICCG DSNT SE-S-SW P0001 T02000189 $
  • 250553Z 10006KT 9SM -RA SCT007 BKN037 OVC060 20/20 A3002 RMK AO2 SLP152 RB40 OCNL LTGICCG DSNT SE-S-W P0006 60052 T02000200 10217 20194 403720194 51023 $

TAF KICT
Valid from the 25 at 06:00 until the 26 at 06:00 UTC


250520Z 2506/2606 VRB05KT P6SM VCSH SCT007 BKN100
TEMPO 2506/2510 VRB20G30KT TSRA SCT008 BKN015CB OVC050
FM251200 35012G20KT P6SM BKN025
FM251400 35018G28KT P6SM SKC
FM260000 35007KT P6SM SKC
KZKC FIR / North America



MET'MAP, your aeronautical weather chart ! - Copyright ORBIFLY December 2007 - Disclaimer

ORBIFLY MET'MAP TEAM :

Programming & Development : Alexandra Zaïnal
Concept & Development : Baudouin d'Aumeries
Co-Development & Prog : Marc-Olivier Méhu
Technical & hardware support : Manuel Goepfert

Contact : metmap@orbifly.com




SOURCES & CREDITS :

   NOAA       Earth
Advisory